createdAt,value
2022-11-13T00:00:21.859Z,96003.00
2022-11-13T00:02:24.652Z,95983.88
2022-11-13T00:04:27.351Z,95980.34
2022-11-13T00:06:30.108Z,95968.25
2022-11-13T00:08:33.215Z,95966.31
2022-11-13T00:10:36.274Z,95987.75
2022-11-13T00:12:38.941Z,95973.28
2022-11-13T00:14:41.945Z,95976.81
2022-11-13T00:16:44.697Z,95947.94
2022-11-13T00:18:48.353Z,95929.97
2022-11-13T00:20:50.945Z,95976.00
2022-11-13T00:22:55.685Z,95954.16
2022-11-13T00:24:58.403Z,96048.13
2022-11-13T00:27:01.006Z,95943.63
2022-11-13T00:29:03.988Z,95963.16
2022-11-13T00:31:08.004Z,95941.28
2022-11-13T00:33:10.921Z,95964.69
2022-11-13T00:35:13.618Z,95946.34
2022-11-13T00:37:16.345Z,95972.06
2022-11-13T00:39:18.972Z,95972.06
2022-11-13T00:41:22.910Z,95945.50
2022-11-13T00:43:25.650Z,95953.28
2022-11-13T00:45:28.257Z,95942.31
2022-11-13T00:47:30.889Z,95958.69
2022-11-13T00:49:33.568Z,95950.84
2022-11-13T00:51:36.258Z,95957.84
2022-11-13T00:53:38.929Z,95976.53
2022-11-13T00:55:44.189Z,95973.00
2022-11-13T00:57:47.152Z,95960.94
2022-11-13T00:59:49.886Z,95941.78
2022-11-13T01:01:52.871Z,95946.81
2022-11-13T01:03:55.814Z,95937.44
2022-11-13T01:05:58.447Z,95937.41
2022-11-13T01:08:01.185Z,95968.53
2022-11-13T01:10:08.101Z,95961.91
2022-11-13T01:12:10.794Z,95951.72
2022-11-13T01:14:13.544Z,95944.34
2022-11-13T01:16:18.016Z,95945.88
2022-11-13T01:18:20.630Z,95945.84
2022-11-13T01:20:25.129Z,95948.94
2022-11-13T01:22:27.783Z,95938.00
2022-11-13T01:24:31.798Z,95934.53
2022-11-13T01:26:34.575Z,95952.81
2022-11-13T01:28:38.176Z,95966.03
2022-11-13T01:30:40.808Z,95976.56
2022-11-13T01:32:43.515Z,95962.84
2022-11-13T01:34:46.271Z,95941.03
2022-11-13T01:36:48.945Z,95939.81
2022-11-13T01:38:52.122Z,95926.63
2022-11-13T01:40:54.754Z,95933.19
2022-11-13T01:42:57.598Z,95969.03
2022-11-13T01:45:02.588Z,95957.34
2022-11-13T01:47:06.807Z,95942.91
2022-11-13T01:49:12.155Z,95944.09
2022-11-13T01:51:23.283Z,95941.72
2022-11-13T01:53:28.190Z,95951.44
2022-11-13T01:55:30.840Z,95922.25
2022-11-13T01:57:34.164Z,95933.53
2022-11-13T01:59:42.034Z,95920.28
2022-11-13T02:01:45.121Z,95912.13
2022-11-13T02:03:47.929Z,95948.72
2022-11-13T02:05:51.395Z,95945.97
2022-11-13T02:07:54.311Z,95935.47
2022-11-13T02:09:58.709Z,95939.38
2022-11-13T02:12:01.922Z,95916.38
2022-11-13T02:14:05.882Z,95925.31
2022-11-13T02:16:10.966Z,95919.06
2022-11-13T02:18:15.749Z,95925.31
2022-11-13T02:20:35.531Z,95915.94
2022-11-13T02:22:45.692Z,95913.63
2022-11-13T02:24:54.568Z,95910.88
2022-11-13T02:27:02.544Z,95912.03
2022-11-13T02:29:05.266Z,95915.88
2022-11-13T02:31:10.647Z,95921.72
2022-11-13T02:33:30.969Z,95910.84
2022-11-13T02:35:37.708Z,95921.28
2022-11-13T02:37:40.379Z,95933.75
2022-11-13T02:39:43.039Z,95913.91
2022-11-13T02:41:45.666Z,95929.84
2022-11-13T02:43:48.361Z,95937.97
2022-11-13T02:45:51.018Z,95912.28
2022-11-13T02:47:53.788Z,95921.63
2022-11-13T02:49:56.521Z,95938.34
2022-11-13T02:51:59.207Z,95891.63
2022-11-13T02:54:02.081Z,95911.88
2022-11-13T02:56:05.037Z,95914.16
2022-11-13T02:58:07.715Z,95908.34
2022-11-13T03:00:14.034Z,95907.53
2022-11-13T03:02:17.093Z,95918.03
2022-11-13T03:04:19.736Z,95935.88
2022-11-13T03:06:22.352Z,95905.59
2022-11-13T03:08:26.199Z,95917.19
2022-11-13T03:10:29.132Z,95909.44
2022-11-13T03:12:32.785Z,95904.00
2022-11-13T03:14:35.917Z,95925.75
2022-11-13T03:16:38.600Z,95929.25
2022-11-13T03:18:41.727Z,95934.28
2022-11-13T03:20:44.607Z,95937.34
2022-11-13T03:22:47.355Z,95912.50
2022-11-13T03:24:49.924Z,95924.91
2022-11-13T03:26:52.633Z,95903.91
2022-11-13T03:28:55.721Z,95914.41
2022-11-13T03:30:58.442Z,95920.63
2022-11-13T03:33:01.104Z,95924.88
2022-11-13T03:35:04.216Z,95906.59
2022-11-13T03:37:07.014Z,95909.31
2022-11-13T03:39:09.981Z,95907.72
2022-11-13T03:41:15.049Z,95921.72
2022-11-13T03:43:18.031Z,95915.53
2022-11-13T03:45:20.711Z,95940.38
2022-11-13T03:47:23.472Z,95918.59
2022-11-13T03:49:26.480Z,95923.63
2022-11-13T03:51:29.156Z,95927.91
2022-11-13T03:53:31.838Z,95935.28
2022-11-13T03:55:34.455Z,95945.38
2022-11-13T03:57:37.107Z,95950.06
2022-11-13T03:59:39.812Z,95951.59
2022-11-13T04:01:42.610Z,95951.22
2022-11-13T04:03:45.251Z,95947.28
2022-11-13T04:05:49.518Z,95950.00
2022-11-13T04:07:52.240Z,95958.22
2022-11-13T04:09:54.877Z,95939.13
2022-11-13T04:11:57.527Z,95941.06
2022-11-13T04:14:00.319Z,95942.63
2022-11-13T04:16:03.455Z,95950.38
2022-11-13T04:18:06.304Z,95948.38
2022-11-13T04:20:09.747Z,95962.00
2022-11-13T04:22:12.920Z,95964.41
2022-11-13T04:24:15.613Z,95947.59
2022-11-13T04:26:18.246Z,95994.53
2022-11-13T04:28:21.307Z,95976.34
2022-11-13T04:30:24.005Z,95968.88
2022-11-13T04:32:26.642Z,95977.03
2022-11-13T04:34:29.246Z,95964.97
2022-11-13T04:36:31.902Z,95987.16
2022-11-13T04:38:34.504Z,95981.28
2022-11-13T04:40:37.390Z,95976.94
2022-11-13T04:42:49.175Z,95986.28
2022-11-13T04:44:51.777Z,95983.59
2022-11-13T04:46:54.428Z,95994.06
2022-11-13T04:48:57.202Z,95977.03
2022-11-13T04:50:59.916Z,95974.63
2022-11-13T04:53:02.519Z,96033.72
2022-11-13T04:55:05.956Z,96001.09
2022-11-13T04:57:08.586Z,95999.06
2022-11-13T04:59:12.130Z,96005.69
2022-11-13T05:01:15.316Z,95995.13
2022-11-13T05:03:18.090Z,95997.03
2022-11-13T05:05:20.670Z,95989.19
2022-11-13T05:07:23.523Z,95992.00
2022-11-13T05:09:26.151Z,95993.19
2022-11-13T05:11:28.835Z,96003.63
2022-11-13T05:13:34.173Z,96011.03
2022-11-13T05:15:36.846Z,96016.06
2022-11-13T05:17:39.483Z,96016.03
2022-11-13T05:19:42.346Z,96020.38
2022-11-13T05:21:45.019Z,96011.13
2022-11-13T05:23:47.647Z,96009.56
2022-11-13T05:25:50.457Z,96006.44
2022-11-13T05:27:53.044Z,96026.56
2022-11-13T05:29:55.664Z,96032.78
2022-11-13T05:31:58.699Z,95999.75
2022-11-13T05:34:06.090Z,96024.53
2022-11-13T05:36:12.049Z,96040.19
2022-11-13T05:38:14.721Z,96030.81
2022-11-13T05:40:17.545Z,96030.81
2022-11-13T05:42:20.207Z,96032.03
2022-11-13T05:44:22.942Z,96025.91
2022-11-13T05:46:28.224Z,96037.53
2022-11-13T05:48:31.457Z,96049.53
2022-11-13T05:50:34.481Z,96030.13
2022-11-13T05:52:37.146Z,96036.28
2022-11-13T05:54:39.864Z,96037.97
2022-11-13T05:56:42.609Z,96006.47
2022-11-13T05:58:45.590Z,96052.66
2022-11-13T06:00:48.276Z,96087.25
2022-11-13T06:02:51.146Z,96042.81
2022-11-13T06:04:56.468Z,96056.00
2022-11-13T06:07:00.644Z,96054.81
2022-11-13T06:09:05.564Z,96063.78
2022-11-13T06:11:12.340Z,96070.03
2022-11-13T06:13:16.113Z,96062.16
2022-11-13T06:15:19.175Z,96062.16
2022-11-13T06:17:21.958Z,96071.88
2022-11-13T06:19:25.409Z,96071.09
2022-11-13T06:21:31.253Z,96101.41
2022-11-13T06:23:35.597Z,96059.47
2022-11-13T06:25:38.256Z,96064.88
2022-11-13T06:27:41.437Z,96080.00
2022-11-13T06:29:44.917Z,96086.66
2022-11-13T06:31:47.868Z,96092.88
2022-11-13T06:33:50.896Z,96078.47
2022-11-13T06:35:53.686Z,96085.91
2022-11-13T06:37:57.663Z,96102.19
2022-11-13T06:40:00.404Z,96084.28
2022-11-13T06:42:03.118Z,96121.25
2022-11-13T06:44:05.982Z,96134.75
2022-11-13T06:46:15.088Z,96116.03
2022-11-13T06:48:17.814Z,96098.59
2022-11-13T06:50:20.657Z,96127.34
2022-11-13T06:52:24.124Z,96105.91
2022-11-13T06:54:26.914Z,96147.00
2022-11-13T06:56:29.655Z,96112.91
2022-11-13T06:58:32.724Z,96121.78
2022-11-13T07:00:37.632Z,96102.13
2022-11-13T07:02:42.501Z,96135.50
2022-11-13T07:04:45.460Z,96161.91
2022-11-13T07:06:48.200Z,96129.28
2022-11-13T07:08:51.330Z,96140.09
2022-11-13T07:10:55.620Z,96164.66
2022-11-13T07:13:01.581Z,96152.59
2022-11-13T07:15:04.521Z,96165.81
2022-11-13T07:17:10.077Z,96157.59
2022-11-13T07:19:13.304Z,96165.72
2022-11-13T07:21:16.054Z,96142.81
2022-11-13T07:23:18.802Z,96161.47
2022-11-13T07:25:21.472Z,96182.81
2022-11-13T07:27:24.191Z,96183.31
2022-11-13T07:29:26.918Z,96178.66
2022-11-13T07:31:29.711Z,96183.69
2022-11-13T07:33:32.867Z,96181.06
2022-11-13T07:35:36.382Z,96192.72
2022-11-13T07:37:39.515Z,96176.75
2022-11-13T07:39:43.016Z,96192.72
2022-11-13T07:41:48.033Z,96188.84
2022-11-13T07:43:51.157Z,96196.28
2022-11-13T07:45:57.251Z,96184.09
2022-11-13T07:48:01.539Z,96189.22
2022-11-13T07:50:09.718Z,96201.66
2022-11-13T07:52:13.703Z,96202.38
2022-11-13T07:54:16.407Z,96220.25
2022-11-13T07:56:23.001Z,96216.75
2022-11-13T07:58:26.208Z,96205.44
2022-11-13T08:00:30.872Z,96219.47
2022-11-13T08:02:33.528Z,96211.75
2022-11-13T08:04:36.195Z,96216.81
2022-11-13T08:06:39.509Z,96228.38
2022-11-13T08:08:42.285Z,96222.19
2022-11-13T08:10:44.875Z,96242.44
2022-11-13T08:12:47.966Z,96225.22
2022-11-13T08:14:50.710Z,96239.66
2022-11-13T08:16:53.369Z,96228.00
2022-11-13T08:18:56.126Z,96242.00
2022-11-13T08:21:02.830Z,96227.94
2022-11-13T08:23:06.062Z,96250.13
2022-11-13T08:25:08.870Z,96270.66
2022-11-13T08:27:12.571Z,96250.84
2022-11-13T08:29:15.289Z,96257.41
2022-11-13T08:31:18.968Z,96250.41
2022-11-13T08:33:21.747Z,96271.38
2022-11-13T08:35:29.102Z,96268.94
2022-11-13T08:37:33.352Z,96316.03
2022-11-13T08:39:36.129Z,96272.47
2022-11-13T08:41:38.823Z,96283.47
2022-11-13T08:43:41.583Z,96283.03
2022-11-13T08:45:47.763Z,96283.34
2022-11-13T08:47:50.385Z,96294.28
2022-11-13T08:49:53.060Z,96293.41
2022-11-13T08:51:55.742Z,96312.53
2022-11-13T08:53:58.395Z,96294.63
2022-11-13T08:56:02.893Z,96312.53
2022-11-13T08:58:05.629Z,96307.38
2022-11-13T09:00:08.864Z,96318.75
2022-11-13T09:02:15.650Z,96319.03
2022-11-13T09:04:18.352Z,96306.94
2022-11-13T09:06:21.025Z,96327.75
2022-11-13T09:08:23.825Z,96324.97
2022-11-13T09:10:27.828Z,96334.19
2022-11-13T09:12:30.834Z,96332.63
2022-11-13T09:14:33.562Z,96335.00
2022-11-13T09:16:36.357Z,96342.44
2022-11-13T09:18:39.044Z,96343.63
2022-11-13T09:20:41.662Z,96347.88
2022-11-13T09:22:44.519Z,96358.00
2022-11-13T09:24:47.165Z,96354.16
2022-11-13T09:26:49.848Z,96355.66
2022-11-13T09:28:52.561Z,96380.19
2022-11-13T09:30:55.212Z,96375.09
2022-11-13T09:32:59.731Z,96374.72
2022-11-13T09:35:02.491Z,96401.47
2022-11-13T09:37:05.755Z,96393.75
2022-11-13T09:39:08.606Z,96399.44
2022-11-13T09:41:17.967Z,96399.53
2022-11-13T09:43:29.371Z,96402.28
2022-11-13T09:45:33.557Z,96410.19
2022-11-13T09:47:44.804Z,96422.47
2022-11-13T09:49:52.568Z,96419.34
2022-11-13T09:51:59.085Z,96426.06
2022-11-13T09:54:08.064Z,96422.84
2022-11-13T09:56:20.024Z,96443.03
2022-11-13T09:58:31.769Z,96433.66
2022-11-13T10:00:35.340Z,96443.06
2022-11-13T10:02:37.915Z,96444.25
2022-11-13T10:05:04.747Z,96442.31
2022-11-13T10:07:19.023Z,96455.47
2022-11-13T10:09:21.715Z,96464.47
2022-11-13T10:11:35.977Z,96463.28
2022-11-13T10:14:01.639Z,96479.00
2022-11-13T10:16:41.558Z,96468.28
2022-11-13T10:18:47.199Z,96469.50
2022-11-13T10:20:58.269Z,96484.69
2022-11-13T10:23:15.452Z,96502.34
2022-11-13T10:25:23.725Z,96492.97
2022-11-13T10:27:26.931Z,96498.03
2022-11-13T10:29:29.975Z,96497.59
2022-11-13T10:31:44.609Z,96492.13
2022-11-13T10:33:47.443Z,96503.13
2022-11-13T10:36:14.412Z,96505.50
2022-11-13T10:38:34.114Z,96516.28
2022-11-13T10:40:39.828Z,96526.31
2022-11-13T10:42:42.755Z,96503.41
2022-11-13T10:44:57.483Z,96518.25
2022-11-13T10:47:19.857Z,96520.19
2022-11-13T10:49:33.920Z,96539.28
2022-11-13T10:51:37.363Z,96542.78
2022-11-13T10:53:42.809Z,96559.91
2022-11-13T10:55:46.669Z,96549.47
2022-11-13T10:58:01.175Z,96550.25
2022-11-13T11:00:23.992Z,96550.69
2022-11-13T11:02:28.662Z,96567.00
2022-11-13T11:04:31.610Z,96563.56
2022-11-13T11:09:32.284Z,96571.63
2022-11-13T11:11:53.689Z,96586.03
2022-11-13T11:14:18.273Z,96575.94
2022-11-13T11:16:24.721Z,96582.94
2022-11-13T11:18:34.706Z,96600.47
2022-11-13T11:20:59.723Z,96596.09
2022-11-13T11:23:16.042Z,96603.91
2022-11-13T11:25:27.806Z,96608.56
2022-11-13T11:28:15.688Z,96621.47
2022-11-13T11:30:24.312Z,96613.56
2022-11-13T11:32:36.787Z,96632.63
2022-11-13T11:34:56.263Z,96624.47
2022-11-13T11:37:04.568Z,96626.38
2022-11-13T11:39:25.698Z,96632.97
2022-11-13T11:41:36.831Z,96621.38
2022-11-13T11:43:51.711Z,96634.19
2022-11-13T11:45:54.506Z,96650.88
2022-11-13T11:47:59.238Z,96650.88
2022-11-13T11:50:03.287Z,96637.34
2022-11-13T11:52:33.768Z,96663.75
2022-11-13T11:55:13.934Z,96656.38
2022-11-13T11:57:35.058Z,96673.91
2022-11-13T11:59:51.650Z,96692.09
2022-11-13T12:02:33.394Z,96665.69
2022-11-13T12:05:05.122Z,96673.91
2022-11-13T12:07:47.343Z,96690.63
2022-11-13T12:10:38.343Z,96695.94
2022-11-13T12:12:45.979Z,96697.78
2022-11-13T12:15:11.454Z,96704.09
2022-11-13T12:17:28.134Z,96703.31
2022-11-13T12:20:15.102Z,96706.03
2022-11-13T12:22:43.730Z,96699.66
2022-11-13T12:25:07.416Z,96717.63
2022-11-13T12:27:20.564Z,96729.31
2022-11-13T12:29:57.286Z,96750.63
2022-11-13T12:32:38.646Z,96730.88
2022-11-13T12:34:49.184Z,96725.69
2022-11-13T12:36:54.447Z,96747.38
2022-11-13T12:39:28.186Z,96757.53
2022-11-13T12:42:02.913Z,96740.53
2022-11-13T12:44:26.305Z,96748.22
2022-11-13T12:46:40.781Z,96744.72
2022-11-13T12:48:46.378Z,96756.84
2022-11-13T12:51:03.929Z,96760.25
2022-11-13T12:53:11.990Z,96758.34
2022-11-13T12:55:56.651Z,96767.72
2022-11-13T12:58:11.461Z,96756.38
2022-11-13T13:00:25.942Z,96787.13
2022-11-13T13:02:40.896Z,96789.03
2022-11-13T13:04:54.830Z,96772.63
2022-11-13T13:07:28.308Z,96786.69
2022-11-13T13:09:55.155Z,96781.91
2022-11-13T13:12:07.716Z,96791.22
2022-11-13T13:14:54.370Z,96800.28
2022-11-13T13:19:42.977Z,96804.31
2022-11-13T13:21:45.730Z,96813.56
2022-11-13T13:23:51.372Z,96810.06
2022-11-13T13:26:22.412Z,96808.84
2022-11-13T13:28:25.571Z,96818.31
2022-11-13T13:30:31.662Z,96817.44
2022-11-13T13:33:17.320Z,96828.22
2022-11-13T13:35:30.093Z,96819.53
2022-11-13T13:37:56.830Z,96825.22
2022-11-13T13:40:17.951Z,96827.50
2022-11-13T13:42:44.283Z,96823.75
2022-11-13T13:45:14.734Z,96822.19
2022-11-13T13:47:48.113Z,96836.56
2022-11-13T13:49:52.311Z,96830.34
2022-11-13T13:51:58.519Z,96847.34
2022-11-13T13:54:06.006Z,96835.94
2022-11-13T13:56:12.426Z,96839.25
2022-11-13T13:58:18.221Z,96838.88
2022-11-13T14:00:21.722Z,96835.84
2022-11-13T14:02:24.765Z,96847.28
2022-11-13T14:04:29.854Z,96854.66
2022-11-13T14:06:33.302Z,96846.75
2022-11-13T14:08:36.005Z,96879.66
2022-11-13T14:10:39.939Z,96862.91
2022-11-13T14:12:44.454Z,96873.81
2022-11-13T14:14:47.730Z,96866.88
2022-11-13T14:16:52.541Z,96869.84
2022-11-13T14:19:04.877Z,96876.53
2022-11-13T14:21:34.012Z,96876.44
2022-11-13T14:23:41.158Z,96886.84
2022-11-13T14:25:45.168Z,96885.03
2022-11-13T14:27:48.442Z,96887.75
2022-11-13T14:29:55.106Z,96888.53
2022-11-13T14:32:05.391Z,96904.41
2022-11-13T14:34:17.101Z,96908.13
2022-11-13T14:36:27.834Z,96886.75
2022-11-13T14:38:35.794Z,96895.69
2022-11-13T14:40:38.550Z,96902.25
2022-11-13T14:42:47.168Z,96915.59
2022-11-13T14:44:49.964Z,96911.28
2022-11-13T14:47:01.332Z,96903.84
2022-11-13T14:49:05.131Z,96910.63
2022-11-13T14:51:24.861Z,96915.47
2022-11-13T14:53:30.583Z,96921.13
2022-11-13T14:55:52.129Z,96940.38
2022-11-13T14:57:55.120Z,96921.94
2022-11-13T15:00:08.854Z,96916.28
2022-11-13T15:02:13.028Z,96926.44
2022-11-13T15:04:15.751Z,96935.28
2022-11-13T15:06:20.338Z,96923.63
2022-11-13T15:08:23.487Z,96962.66
2022-11-13T15:10:28.414Z,96947.47
2022-11-13T15:12:31.162Z,96955.28
2022-11-13T15:14:33.977Z,96952.91
2022-11-13T15:16:37.362Z,96956.53
2022-11-13T15:18:43.215Z,96958.09
2022-11-13T15:20:46.389Z,96959.09
2022-11-13T15:22:51.349Z,96952.88
2022-11-13T15:24:54.122Z,96967.78
2022-11-13T15:26:56.963Z,96964.03
2022-11-13T15:28:59.966Z,96960.88
2022-11-13T15:31:02.988Z,96969.91
2022-11-13T15:33:14.722Z,96966.72
2022-11-13T15:35:18.765Z,96976.41
2022-11-13T15:37:21.547Z,96991.41
2022-11-13T15:39:24.430Z,96984.16
2022-11-13T15:41:28.763Z,96979.53
2022-11-13T15:43:31.843Z,96999.50
2022-11-13T15:45:36.074Z,96990.59
2022-11-13T15:47:41.906Z,96999.25
2022-11-13T15:49:56.614Z,96987.63
2022-11-13T15:52:08.121Z,97000.34
2022-11-13T15:54:20.764Z,96987.22
2022-11-13T15:56:25.202Z,96992.31
2022-11-13T15:58:33.374Z,96990.69
2022-11-13T16:00:42.415Z,96998.06
2022-11-13T16:02:45.931Z,96990.13
2022-11-13T16:04:56.612Z,96990.78
2022-11-13T16:07:00.281Z,96992.56
2022-11-13T16:09:04.851Z,96997.78
2022-11-13T16:11:10.840Z,96993.81
2022-11-13T16:13:13.734Z,96988.25
2022-11-13T16:15:17.833Z,96995.91
2022-11-13T16:17:21.855Z,97001.22
2022-11-13T16:19:26.018Z,96992.50
2022-11-13T16:21:29.344Z,96998.44
2022-11-13T16:23:32.278Z,97006.69
2022-11-13T16:25:35.269Z,96984.88
2022-11-13T16:27:38.395Z,97019.44
2022-11-13T16:29:41.437Z,97002.25
2022-11-13T16:31:44.295Z,97000.69
2022-11-13T16:33:47.833Z,97007.53
2022-11-13T16:35:50.735Z,97012.81
2022-11-13T16:37:53.679Z,97014.56
2022-11-13T16:39:56.861Z,97027.81
2022-11-13T16:41:59.829Z,97018.22
2022-11-13T16:44:02.698Z,97025.00
2022-11-13T16:46:33.023Z,97017.84
2022-11-13T16:48:36.006Z,97029.00
2022-11-13T16:50:39.944Z,97040.81
2022-11-13T16:52:42.748Z,97034.00
2022-11-13T16:54:45.594Z,97044.34
2022-11-13T16:56:48.464Z,97031.13
2022-11-13T16:58:52.101Z,97041.84
2022-11-13T17:01:00.016Z,97051.69
2022-11-13T17:03:03.131Z,97045.03
2022-11-13T17:05:06.409Z,97047.09
2022-11-13T17:07:16.464Z,97044.38
2022-11-13T17:09:19.213Z,97036.75
2022-11-13T17:11:23.280Z,97052.69
2022-11-13T17:13:26.256Z,97047.28
2022-11-13T17:15:29.458Z,97057.81
2022-11-13T17:17:32.141Z,97048.44
2022-11-13T17:19:35.171Z,97057.66
2022-11-13T17:21:42.816Z,97053.69
2022-11-13T17:23:46.899Z,97050.50
2022-11-13T17:25:50.035Z,97057.03
2022-11-13T17:27:52.738Z,97063.09
2022-11-13T17:29:55.576Z,97066.59
2022-11-13T17:31:58.584Z,97073.75
2022-11-13T17:34:01.705Z,97072.66
2022-11-13T17:36:05.100Z,97072.50
2022-11-13T17:38:07.914Z,97077.28
2022-11-13T17:40:11.975Z,97070.63
2022-11-13T17:42:15.478Z,97077.28
2022-11-13T17:44:18.666Z,97079.03
2022-11-13T17:46:21.631Z,97076.81
2022-11-13T17:48:24.306Z,97074.41
2022-11-13T17:50:27.134Z,97085.09
2022-11-13T17:52:29.917Z,97078.88
2022-11-13T17:54:32.875Z,97088.91
2022-11-13T17:56:37.825Z,97094.66
2022-11-13T17:58:42.865Z,97083.34
2022-11-13T18:00:45.621Z,97093.03
2022-11-13T18:02:48.327Z,97101.50
2022-11-13T18:04:51.201Z,97108.47
2022-11-13T18:06:53.939Z,97106.25
2022-11-13T18:08:56.599Z,97103.53
2022-11-13T18:10:59.535Z,97100.06
2022-11-13T18:13:02.577Z,97102.63
2022-11-13T18:15:05.543Z,97112.78
2022-11-13T18:17:08.403Z,97105.00
2022-11-13T18:19:11.497Z,97117.22
2022-11-13T18:21:25.140Z,97104.53
2022-11-13T18:23:28.028Z,97111.66
2022-11-13T18:25:33.264Z,97118.19
2022-11-13T18:27:40.253Z,97131.22
2022-11-13T18:29:43.031Z,97121.97
2022-11-13T18:31:45.713Z,97125.81
2022-11-13T18:33:48.594Z,97118.50
2022-11-13T18:35:55.863Z,97107.06
2022-11-13T18:37:58.575Z,97139.00
2022-11-13T18:40:02.061Z,97128.50
2022-11-13T18:42:07.770Z,97125.63
2022-11-13T18:44:10.423Z,97135.34
2022-11-13T18:46:14.514Z,97131.84
2022-11-13T18:48:17.443Z,97133.75
2022-11-13T18:50:20.110Z,97118.81
2022-11-13T18:52:22.968Z,97133.09
2022-11-13T18:54:25.788Z,97131.84
2022-11-13T18:56:30.451Z,97140.44
2022-11-13T18:58:40.025Z,97136.13
2022-11-13T19:00:42.763Z,97141.06
2022-11-13T19:02:45.601Z,97136.59
2022-11-13T19:04:48.624Z,97143.44
2022-11-13T19:06:52.120Z,97144.56
2022-11-13T19:09:00.706Z,97131.19
2022-11-13T19:11:08.566Z,97138.66
2022-11-13T19:13:11.584Z,97142.94
2022-11-13T19:15:14.255Z,97145.34
2022-11-13T19:17:16.980Z,97149.47
2022-11-13T19:19:24.211Z,97160.44
2022-11-13T19:21:29.156Z,97155.38
2022-11-13T19:23:31.898Z,97160.44
2022-11-13T19:25:34.611Z,97166.78
2022-11-13T19:27:37.371Z,97161.56
2022-11-13T19:29:40.194Z,97149.63
2022-11-13T19:31:44.961Z,97160.28
2022-11-13T19:33:48.089Z,97148.97
2022-11-13T19:35:52.558Z,97165.69
2022-11-13T19:37:58.537Z,97178.06
2022-11-13T19:40:01.607Z,97174.28
2022-11-13T19:42:04.850Z,97174.44
2022-11-13T19:44:09.989Z,97183.47
2022-11-13T19:46:15.115Z,97192.72
2022-11-13T19:48:19.003Z,97191.09
2022-11-13T19:50:21.818Z,97196.69
2022-11-13T19:52:24.545Z,97189.88
2022-11-13T19:54:27.666Z,97195.25
2022-11-13T19:56:30.673Z,97198.16
2022-11-13T19:58:33.587Z,97196.53
2022-11-13T20:00:36.399Z,97203.56
2022-11-13T20:02:39.419Z,97204.66
2022-11-13T20:04:42.303Z,97211.81
2022-11-13T20:06:45.028Z,97202.91
2022-11-13T20:08:47.939Z,97211.81
2022-11-13T20:10:51.150Z,97212.78
2022-11-13T20:12:53.902Z,97228.22
2022-11-13T20:14:56.958Z,97215.66
2022-11-13T20:16:59.714Z,97225.34
2022-11-13T20:19:02.345Z,97247.13
2022-11-13T20:21:05.888Z,97239.34
2022-11-13T20:23:08.687Z,97232.81
2022-11-13T20:25:11.386Z,97248.06
2022-11-13T20:27:15.610Z,97241.25
2022-11-13T20:29:18.884Z,97255.06
2022-11-13T20:31:23.715Z,97236.63
2022-11-13T20:33:26.451Z,97238.53
2022-11-13T20:35:29.490Z,97242.19
2022-11-13T20:37:32.129Z,97250.94
2022-11-13T20:39:34.937Z,97250.44
2022-11-13T20:41:38.214Z,97250.16
2022-11-13T20:43:41.048Z,97254.91
2022-11-13T20:45:43.807Z,97266.38
2022-11-13T20:47:46.710Z,97257.63
2022-11-13T20:49:49.335Z,97260.97
2022-11-13T20:51:56.783Z,97268.13
2022-11-13T20:54:00.470Z,97259.38
2022-11-13T20:56:03.629Z,97270.66
2022-11-13T20:58:06.291Z,97271.47
2022-11-13T21:00:09.949Z,97264.63
2022-11-13T21:02:12.636Z,97278.16
2022-11-13T21:04:15.407Z,97270.19
2022-11-13T21:06:23.290Z,97276.25
2022-11-13T21:08:26.645Z,97295.78
2022-11-13T21:10:29.600Z,97283.56
2022-11-13T21:12:32.762Z,97287.84
2022-11-13T21:14:35.501Z,97282.13
2022-11-13T21:16:38.188Z,97289.47
2022-11-13T21:18:40.862Z,97290.06
2022-11-13T21:20:43.915Z,97301.38
2022-11-13T21:22:46.563Z,97291.03
2022-11-13T21:24:49.256Z,97295.81
2022-11-13T21:26:51.914Z,97308.72
2022-11-13T21:28:56.172Z,97312.38
2022-11-13T21:31:03.985Z,97309.66
2022-11-13T21:33:06.820Z,97315.72
2022-11-13T21:35:09.564Z,97315.41
2022-11-13T21:37:13.559Z,97323.03
2022-11-13T21:39:16.254Z,97330.81
2022-11-13T21:41:23.290Z,97321.13
2022-11-13T21:43:26.687Z,97337.34
2022-11-13T21:45:29.555Z,97333.84
2022-11-13T21:47:33.022Z,97326.22
2022-11-13T21:49:35.840Z,97327.16
2022-11-13T21:51:39.930Z,97345.63
2022-11-13T21:53:43.167Z,97345.16
2022-11-13T21:55:50.337Z,97346.56
2022-11-13T21:57:52.960Z,97354.69
2022-11-13T21:59:55.808Z,97350.84
2022-11-13T22:01:59.801Z,97364.38
2022-11-13T22:04:02.528Z,97368.06
2022-11-13T22:06:29.582Z,97360.75
2022-11-13T22:08:32.532Z,97363.75
2022-11-13T22:10:35.254Z,97361.69
2022-11-13T22:12:37.949Z,97375.38
2022-11-13T22:14:40.738Z,97366.28
2022-11-13T22:16:45.670Z,97358.97
2022-11-13T22:18:48.555Z,97376.47
2022-11-13T22:20:51.383Z,97371.84
2022-11-13T22:22:53.990Z,97368.84
2022-11-13T22:24:56.644Z,97375.25
2022-11-13T22:26:59.528Z,97384.78
2022-11-13T22:29:02.381Z,97368.72
2022-11-13T22:31:05.915Z,97376.97
2022-11-13T22:33:08.684Z,97392.56
2022-11-13T22:35:11.445Z,97376.34
2022-11-13T22:37:14.110Z,97386.34
2022-11-13T22:39:16.996Z,97378.88
2022-11-13T22:41:23.871Z,97394.66
2022-11-13T22:43:26.742Z,97389.06
2022-11-13T22:45:29.695Z,97376.53
2022-11-13T22:47:37.904Z,97389.56
2022-11-13T22:49:40.791Z,97385.72
2022-11-13T22:51:43.435Z,97398.78
2022-11-13T22:53:51.601Z,97393.72
2022-11-13T22:55:54.365Z,97410.41
2022-11-13T22:57:59.031Z,97402.88
2022-11-13T23:00:01.785Z,97407.38
2022-11-13T23:02:07.090Z,97409.59
2022-11-13T23:04:13.345Z,97413.91
2022-11-13T23:06:21.963Z,97421.50
2022-11-13T23:08:24.624Z,97418.31
2022-11-13T23:10:27.310Z,97427.34
2022-11-13T23:12:30.665Z,97426.75
2022-11-13T23:14:33.391Z,97426.75
2022-11-13T23:16:36.390Z,97442.91
2022-11-13T23:18:39.472Z,97442.66
2022-11-13T23:20:43.528Z,97442.50
2022-11-13T23:22:46.165Z,97442.00
2022-11-13T23:24:48.990Z,97436.25
2022-11-13T23:26:51.683Z,97451.38
2022-11-13T23:28:54.381Z,97455.09
2022-11-13T23:30:57.129Z,97453.31
2022-11-13T23:32:59.797Z,97457.59
2022-11-13T23:35:02.935Z,97465.41
2022-11-13T23:37:06.456Z,97469.81
2022-11-13T23:39:09.138Z,97468.72
2022-11-13T23:41:11.885Z,97487.97
2022-11-13T23:43:14.612Z,97486.47
2022-11-13T23:45:17.433Z,97480.63
2022-11-13T23:47:20.258Z,97490.16
2022-11-13T23:49:23.006Z,97479.97
2022-11-13T23:51:25.680Z,97479.66
2022-11-13T23:53:28.368Z,97479.53
2022-11-13T23:55:31.078Z,97486.19
2022-11-13T23:57:33.808Z,97497.00
2022-11-13T23:59:36.684Z,97497.63
